Time;durP1;ratioP1;P1;durP2;ratioP2;P2;SDS_P1;SDS_P2;PMS_P1;PMS_P2;Temp;Humidity;BMP_temperature;BMP_pressure;BME280_temperature;BME280_humidity;BME280_pressure;Samples;Min_cycle;Max_cycle;Signal;HPM_P1;HPM_P2
2023/01/17 00:00:19;;;;;;;12.23;8.33;;;;;;;-142.25;100.00;58004.16;5016559;28;20046;-71
2023/01/17 00:02:45;;;;;;;12.03;7.20;;;;;;;-142.25;100.00;58004.16;5043400;28;20037;-70
2023/01/17 00:10:44;;;;;;;11.33;8.40;;;;;;;-142.25;100.00;58004.16;4988165;28;20058;-71
2023/01/17 00:13:10;;;;;;;12.87;9.00;;;;;;;-142.25;100.00;58004.16;4982689;28;20516;-73
2023/01/17 00:15:38;;;;;;;12.17;7.53;;;;;;;-142.25;100.00;58004.16;4973777;28;20041;-71
2023/01/17 00:18:04;;;;;;;10.27;7.73;;;;;;;-142.25;100.00;58004.16;4988815;28;20053;-71
2023/01/17 00:26:15;;;;;;;12.60;8.57;;;;;;;-142.25;100.00;58004.16;4970532;28;20096;-70
2023/01/17 01:35:52;;;;;;;9.60;6.57;;;;;;;-142.25;100.00;58004.16;5044024;28;20099;-71
2023/01/17 01:38:20;;;;;;;9.48;6.70;;;;;;;-142.25;100.00;58004.16;5044289;28;20102;-71
2023/01/17 01:40:51;;;;;;;10.40;7.03;;;;;;;-142.25;100.00;58004.16;5047302;28;20352;-71
2023/01/17 01:43:42;;;;;;;10.03;7.10;;;;;;;-142.25;100.00;58004.16;5046899;28;20359;-71
2023/01/17 01:46:10;;;;;;;10.97;8.03;;;;;;;-142.25;100.00;58004.16;5048024;28;20044;-71
2023/01/17 01:48:48;;;;;;;14.80;8.53;;;;;;;-142.25;100.00;58004.16;5045967;28;20362;-70
2023/01/17 01:51:32;;;;;;;11.13;7.70;;;;;;;-142.25;100.00;58004.16;5045000;28;20045;-71
2023/01/17 01:54:05;;;;;;;12.47;7.83;;;;;;;-142.25;100.00;58004.16;5043736;28;20059;-70
2023/01/17 01:56:32;;;;;;;11.83;6.90;;;;;;;-142.25;100.00;58004.16;5045458;28;20132;-69
2023/01/17 01:59:00;;;;;;;10.67;6.57;;;;;;;-142.25;100.00;58004.16;5042450;28;20659;-69
2023/01/17 02:01:26;;;;;;;12.33;7.40;;;;;;;-142.25;100.00;58004.16;5031119;28;20433;-70
2023/01/17 02:03:51;;;;;;;11.23;7.00;;;;;;;-142.25;100.00;58004.16;5046847;28;20118;-69
2023/01/17 02:06:27;;;;;;;9.73;6.90;;;;;;;-142.25;100.00;58004.16;5044998;28;20674;-69
2023/01/17 02:08:55;;;;;;;10.47;7.00;;;;;;;-142.25;100.00;58004.16;5043551;28;20080;-70
2023/01/17 02:11:21;;;;;;;10.13;7.30;;;;;;;-142.25;100.00;58004.16;5046222;28;20136;-70
2023/01/17 02:13:47;;;;;;;13.63;9.73;;;;;;;-142.25;100.00;58004.16;5045197;28;20123;-71
2023/01/17 02:16:32;;;;;;;13.13;7.83;;;;;;;-142.25;100.00;58004.16;5030193;28;20129;-71
2023/01/17 02:19:35;;;;;;;11.02;7.43;;;;;;;-142.25;100.00;58004.16;5045901;28;20048;-72
2023/01/17 02:22:09;;;;;;;15.63;10.00;;;;;;;-142.25;100.00;58004.16;5045175;28;20442;-69
2023/01/17 02:25:09;;;;;;;9.00;6.35;;;;;;;-142.25;100.00;58004.16;5046427;28;20038;-70
2023/01/17 02:27:54;;;;;;;14.30;9.10;;;;;;;-142.25;100.00;58004.16;5044135;28;20067;-70
2023/01/17 02:30:41;;;;;;;18.23;9.90;;;;;;;-142.25;100.00;58004.16;5029733;28;20446;-70
2023/01/17 02:33:23;;;;;;;13.47;8.90;;;;;;;-142.25;100.00;58004.16;5041535;28;20075;-69
2023/01/17 02:36:02;;;;;;;14.27;9.70;;;;;;;-142.25;100.00;58004.16;5041354;28;20076;-71
2023/01/17 02:38:44;;;;;;;17.73;10.77;;;;;;;-142.25;100.00;58004.16;5039620;28;20048;-71
2023/01/17 02:41:21;;;;;;;13.07;8.87;;;;;;;-142.25;100.00;58004.16;5042263;28;20116;-70
2023/01/17 02:43:51;;;;;;;15.63;10.27;;;;;;;-142.25;100.00;58004.16;5043944;28;20071;-72
2023/01/17 02:46:17;;;;;;;15.20;9.73;;;;;;;-142.25;100.00;58004.16;5041398;28;20055;-71
2023/01/17 02:48:44;;;;;;;15.97;10.53;;;;;;;-142.25;100.00;58004.16;5046177;28;20480;-70
2023/01/17 02:51:37;;;;;;;13.67;9.53;;;;;;;-142.25;100.00;58004.16;5045137;28;20041;-72
2023/01/17 02:54:22;;;;;;;19.43;10.13;;;;;;;-142.25;100.00;58004.16;5043176;28;20049;-70
2023/01/17 02:57:23;;;;;;;16.30;9.43;;;;;;;-142.25;100.00;58004.16;5045631;28;20045;-70
2023/01/17 03:00:09;;;;;;;19.13;9.90;;;;;;;-142.25;100.00;58004.16;4984040;28;20054;-69
2023/01/17 03:02:54;;;;;;;15.03;10.20;;;;;;;-142.25;100.00;58004.16;4986154;28;20147;-70
2023/01/17 03:05:27;;;;;;;16.73;9.80;;;;;;;-142.25;100.00;58004.16;4986348;28;20057;-69
2023/01/17 03:07:54;;;;;;;14.90;9.93;;;;;;;-142.25;100.00;58004.16;4984799;28;20483;-71
2023/01/17 03:10:21;;;;;;;14.53;9.17;;;;;;;-142.25;100.00;58004.16;4980937;28;21077;-70
2023/01/17 03:12:47;;;;;;;17.50;10.60;;;;;;;-142.25;100.00;58004.16;5001557;28;20078;-69
2023/01/17 03:15:18;;;;;;;12.23;9.00;;;;;;;-142.25;100.00;58004.16;4984152;28;20146;-70
2023/01/17 03:17:48;;;;;;;17.83;10.53;;;;;;;-142.25;100.00;58004.16;4984857;28;20461;-67
2023/01/17 03:20:14;;;;;;;14.80;10.20;;;;;;;-142.25;100.00;58004.16;4985121;28;20416;-70
2023/01/17 03:22:40;;;;;;;13.80;9.30;;;;;;;-142.25;100.00;58004.16;4986210;28;20038;-67
2023/01/17 03:25:06;;;;;;;16.37;10.00;;;;;;;-142.25;100.00;58004.16;4985374;28;20046;-65
2023/01/17 03:27:31;;;;;;;18.03;10.83;;;;;;;-142.25;100.00;58004.16;4986479;28;20073;-66
2023/01/17 03:29:57;;;;;;;13.53;10.00;;;;;;;-142.25;100.00;58004.16;4987488;28;20243;-65
2023/01/17 03:32:23;;;;;;;15.87;10.73;;;;;;;-142.25;100.00;58004.16;4985087;28;20062;-65
2023/01/17 03:34:48;;;;;;;16.97;10.93;;;;;;;-142.25;100.00;58004.16;4971821;28;20038;-64
2023/01/17 03:37:14;;;;;;;15.77;10.63;;;;;;;-142.25;100.00;58004.16;5014446;28;20083;-67
2023/01/17 03:39:39;;;;;;;14.60;10.43;;;;;;;-142.25;100.00;58004.16;5026614;28;20586;-65
2023/01/17 03:42:05;;;;;;;15.33;9.60;;;;;;;-142.25;100.00;58004.16;5021799;28;20117;-65
2023/01/17 03:44:31;;;;;;;15.40;10.87;;;;;;;-142.25;100.00;58004.16;5022404;28;20045;-64
2023/01/17 03:46:56;;;;;;;15.97;10.33;;;;;;;-142.25;100.00;58004.16;5020521;28;20058;-65
2023/01/17 03:49:22;;;;;;;16.10;10.97;;;;;;;-142.25;100.00;58004.16;5020242;28;20041;-64
2023/01/17 03:51:47;;;;;;;15.97;10.83;;;;;;;-142.25;100.00;58004.16;5020666;28;20122;-65
2023/01/17 03:54:13;;;;;;;15.73;9.87;;;;;;;-142.25;100.00;58004.16;5019465;28;20120;-66
2023/01/17 03:56:38;;;;;;;16.57;10.43;;;;;;;-142.25;100.00;58004.16;5022288;28;20053;-65
2023/01/17 03:59:04;;;;;;;20.57;11.63;;;;;;;-142.25;100.00;58004.16;5021468;28;20773;-66
2023/01/17 04:01:29;;;;;;;18.67;11.03;;;;;;;-142.25;100.00;58004.16;5020893;28;20114;-66
2023/01/17 04:03:55;;;;;;;16.67;10.50;;;;;;;-142.25;100.00;58004.16;5023219;28;20060;-65
2023/01/17 04:06:21;;;;;;;17.17;11.23;;;;;;;-142.25;100.00;58004.16;5022238;28;20060;-66
2023/01/17 04:08:46;;;;;;;14.83;10.90;;;;;;;-142.25;100.00;58004.16;5021600;28;20037;-66
2023/01/17 04:11:12;;;;;;;15.97;10.93;;;;;;;-142.25;100.00;58004.16;5020504;28;20048;-68
2023/01/17 04:13:38;;;;;;;18.97;13.43;;;;;;;-142.25;100.00;58004.16;5009459;28;20439;-68
2023/01/17 04:16:04;;;;;;;16.83;10.83;;;;;;;-142.25;100.00;58004.16;5009211;28;20502;-68
2023/01/17 04:18:29;;;;;;;19.83;12.07;;;;;;;-142.25;100.00;58004.16;5035472;28;20081;-69
2023/01/17 04:20:56;;;;;;;14.83;11.10;;;;;;;-142.25;100.00;58004.16;5022127;28;20110;-66
2023/01/17 04:23:22;;;;;;;19.27;11.30;;;;;;;-142.25;100.00;58004.16;5018998;28;20049;-66
2023/01/17 04:25:47;;;;;;;17.80;11.00;;;;;;;-142.25;100.00;58004.16;5022038;28;20520;-68
2023/01/17 04:28:13;;;;;;;17.90;11.40;;;;;;;-142.25;100.00;58004.16;5023133;28;20387;-66
2023/01/17 04:30:38;;;;;;;18.70;12.63;;;;;;;-142.25;100.00;58004.16;5022422;28;20495;-73
2023/01/17 04:33:04;;;;;;;18.10;12.67;;;;;;;-142.25;100.00;58004.16;5015792;28;20103;-73
2023/01/17 04:35:32;;;;;;;18.47;12.17;;;;;;;-142.25;100.00;58004.16;5020959;28;20655;-74
2023/01/17 04:37:58;;;;;;;19.53;11.77;;;;;;;-142.25;100.00;58004.16;5018613;28;20041;-72
2023/01/17 04:40:24;;;;;;;17.17;11.93;;;;;;;-142.25;100.00;58004.16;5018892;28;20483;-73
2023/01/17 04:42:50;;;;;;;16.17;11.03;;;;;;;-142.25;100.00;58004.16;5022120;28;20056;-73
2023/01/17 04:45:15;;;;;;;18.17;12.57;;;;;;;-142.25;100.00;58004.16;5022951;28;20475;-73
2023/01/17 04:47:41;;;;;;;18.90;11.60;;;;;;;-142.25;100.00;58004.16;5018897;28;20491;-73
2023/01/17 04:50:08;;;;;;;19.67;12.30;;;;;;;-142.25;100.00;58004.16;5025561;28;20052;-74
2023/01/17 04:52:34;;;;;;;18.20;11.53;;;;;;;-142.25;100.00;58004.16;5022288;28;20112;-73
2023/01/17 04:54:59;;;;;;;21.70;12.33;;;;;;;-142.25;100.00;58004.16;5018804;28;20125;-73
2023/01/17 04:57:25;;;;;;;27.60;14.27;;;;;;;-142.25;100.00;58004.16;5017537;28;20049;-73
2023/01/17 04:59:52;;;;;;;20.03;12.60;;;;;;;-142.25;100.00;58004.16;5021255;28;20472;-73
2023/01/17 05:02:24;;;;;;;21.10;12.47;;;;;;;-142.25;100.00;58004.16;5020610;28;20098;-73
2023/01/17 05:04:50;;;;;;;18.83;12.00;;;;;;;-142.25;100.00;58004.16;5020248;28;20046;-73
2023/01/17 05:07:16;;;;;;;22.53;13.53;;;;;;;-142.25;100.00;58004.16;5026780;28;20119;-73
2023/01/17 05:09:42;;;;;;;18.27;12.67;;;;;;;-142.25;100.00;58004.16;5026429;28;20147;-72
2023/01/17 05:12:08;;;;;;;18.20;11.07;;;;;;;-142.25;100.00;58004.16;5026270;28;20079;-73
2023/01/17 05:14:34;;;;;;;21.57;13.10;;;;;;;-142.25;100.00;58004.16;5023820;28;20704;-72
2023/01/17 05:17:01;;;;;;;19.07;11.73;;;;;;;-142.25;100.00;58004.16;5026465;28;20080;-72
2023/01/17 05:19:28;;;;;;;22.27;13.37;;;;;;;-142.25;100.00;58004.16;5037034;28;20049;-73
2023/01/17 05:21:53;;;;;;;27.23;15.10;;;;;;;-142.25;100.00;58004.16;5043541;28;20040;-72
2023/01/17 05:24:19;;;;;;;20.57;12.00;;;;;;;-142.25;100.00;58004.16;5043424;28;20056;-73
2023/01/17 05:26:53;;;;;;;24.07;12.93;;;;;;;-142.25;100.00;58004.16;5044406;28;20471;-73
2023/01/17 05:29:20;;;;;;;21.70;12.17;;;;;;;-142.25;100.00;58004.16;5044064;28;20072;-74
2023/01/17 05:31:45;;;;;;;22.17;12.40;;;;;;;-142.25;100.00;58004.16;5044745;28;20048;-73
2023/01/17 05:34:11;;;;;;;19.23;12.60;;;;;;;-142.25;100.00;58004.16;5042630;28;20491;-74
2023/01/17 05:36:36;;;;;;;18.83;11.90;;;;;;;-142.25;100.00;58004.16;5045589;28;20372;-71
2023/01/17 05:39:02;;;;;;;21.23;13.10;;;;;;;-142.25;100.00;58004.16;5043550;28;20114;-72
2023/01/17 05:41:28;;;;;;;19.17;11.90;;;;;;;-142.25;100.00;58004.16;5048795;28;20037;-70
2023/01/17 05:43:53;;;;;;;19.97;12.33;;;;;;;-142.25;100.00;58004.16;5050364;28;20032;-69
2023/01/17 05:46:19;;;;;;;18.80;12.40;;;;;;;-142.25;100.00;58004.16;5032625;28;20761;-70
2023/01/17 05:48:44;;;;;;;19.40;12.90;;;;;;;-142.25;100.00;58004.16;5043717;28;20209;-71
2023/01/17 05:51:10;;;;;;;24.97;13.93;;;;;;;-142.25;100.00;58004.16;5044032;28;20052;-71
2023/01/17 05:53:35;;;;;;;22.80;13.87;;;;;;;-142.25;100.00;58004.16;5043543;28;20029;-71
2023/01/17 05:56:01;;;;;;;23.27;14.50;;;;;;;-142.25;100.00;58004.16;5051077;28;20357;-71
2023/01/17 05:58:27;;;;;;;24.50;15.17;;;;;;;-142.25;100.00;58004.16;5010426;28;20044;-71
2023/01/17 06:00:54;;;;;;;21.93;12.57;;;;;;;-142.25;100.00;58004.16;5043894;28;20049;-68
2023/01/17 06:03:19;;;;;;;22.03;13.30;;;;;;;-142.25;100.00;58004.16;5044621;28;20055;-66
2023/01/17 06:05:46;;;;;;;20.10;12.43;;;;;;;-142.25;100.00;58004.16;5045465;28;20373;-68
2023/01/17 06:08:12;;;;;;;23.80;15.40;;;;;;;-142.25;100.00;58004.16;5042248;28;20402;-67
2023/01/17 06:10:38;;;;;;;26.63;13.53;;;;;;;-142.25;100.00;58004.16;5042683;28;20037;-69
2023/01/17 06:13:06;;;;;;;22.37;14.43;;;;;;;-142.25;100.00;58004.16;5043656;28;20067;-70
2023/01/17 06:15:34;;;;;;;22.67;13.80;;;;;;;-142.25;100.00;58004.16;5041074;28;20128;-71
2023/01/17 06:18:18;;;;;;;23.57;14.87;;;;;;;-142.25;100.00;58004.16;5036618;28;20102;-72
2023/01/17 06:20:44;;;;;;;23.13;13.07;;;;;;;-142.25;100.00;58004.16;5047579;28;20044;-71
2023/01/17 06:23:11;;;;;;;19.70;13.40;;;;;;;-142.25;100.00;58004.16;5043874;28;20117;-68
2023/01/17 06:25:39;;;;;;;20.63;12.60;;;;;;;-142.25;100.00;58004.16;5048265;28;20040;-71
2023/01/17 06:28:09;;;;;;;26.77;14.90;;;;;;;-142.25;100.00;58004.16;5028999;28;20061;-70
2023/01/17 06:30:35;;;;;;;21.57;12.33;;;;;;;-142.25;100.00;58004.16;5051312;28;20076;-71
2023/01/17 06:33:01;;;;;;;20.27;12.43;;;;;;;-142.25;100.00;58004.16;5036484;28;20123;-71
2023/01/17 06:35:27;;;;;;;22.47;12.63;;;;;;;-142.25;100.00;58004.16;5048042;28;20106;-74
2023/01/17 06:37:54;;;;;;;17.77;11.43;;;;;;;-142.25;100.00;58004.16;5042769;28;20052;-72
2023/01/17 06:40:20;;;;;;;17.47;11.77;;;;;;;-142.25;100.00;58004.16;5041015;28;20369;-68
2023/01/17 06:42:46;;;;;;;22.83;14.00;;;;;;;-142.25;100.00;58004.16;5043920;28;20044;-68
2023/01/17 06:45:12;;;;;;;29.20;16.53;;;;;;;-142.25;100.00;58004.16;5042751;28;20040;-68
2023/01/17 06:47:41;;;;;;;30.47;18.17;;;;;;;-142.25;100.00;58004.16;5042811;28;20744;-68
2023/01/17 06:50:12;;;;;;;35.37;20.57;;;;;;;-142.25;100.00;58004.16;5039668;28;20496;-69
2023/01/17 06:52:41;;;;;;;31.63;19.67;;;;;;;-142.25;100.00;58004.16;5037607;28;20037;-69
2023/01/17 06:55:08;;;;;;;32.73;18.80;;;;;;;-142.25;100.00;58004.16;5038467;28;20542;-69
2023/01/17 06:57:34;;;;;;;35.60;20.13;;;;;;;-142.25;100.00;58004.16;5042782;28;20037;-68
2023/01/17 07:00:00;;;;;;;46.13;23.80;;;;;;;-142.25;100.00;58004.16;5040227;28;20037;-69
2023/01/17 07:02:25;;;;;;;42.00;23.30;;;;;;;-142.25;100.00;58004.16;5042659;28;20061;-69
2023/01/17 07:04:51;;;;;;;42.87;23.23;;;;;;;-142.25;100.00;58004.16;5042460;28;20045;-69
2023/01/17 07:07:20;;;;;;;37.87;21.23;;;;;;;-142.25;100.00;58004.16;5041407;28;20048;-69
2023/01/17 07:09:45;;;;;;;35.43;20.10;;;;;;;-142.25;100.00;58004.16;5040962;28;20149;-69
2023/01/17 07:12:11;;;;;;;33.60;20.30;;;;;;;-142.25;100.00;58004.16;5041130;28;20051;-69
2023/01/17 07:14:36;;;;;;;33.90;18.30;;;;;;;-142.25;100.00;58004.16;5042021;28;20045;-70
2023/01/17 07:17:03;;;;;;;32.93;19.47;;;;;;;-142.25;100.00;58004.16;5043573;28;20041;-69
2023/01/17 07:19:29;;;;;;;30.80;18.40;;;;;;;-142.25;100.00;58004.16;5040594;28;20327;-69
2023/01/17 07:21:54;;;;;;;30.10;17.50;;;;;;;-142.25;100.00;58004.16;5040380;28;20061;-70
2023/01/17 07:24:20;;;;;;;27.43;16.80;;;;;;;-142.25;100.00;58004.16;5042115;28;20048;-69
2023/01/17 07:26:48;;;;;;;26.47;16.03;;;;;;;-142.25;100.00;58004.16;5040710;28;20756;-69
2023/01/17 07:29:13;;;;;;;30.63;19.07;;;;;;;-142.25;100.00;58004.16;5038847;28;20769;-69
2023/01/17 07:31:39;;;;;;;28.57;17.63;;;;;;;-142.25;100.00;58004.16;5040869;28;20040;-69
2023/01/17 07:34:05;;;;;;;32.03;18.77;;;;;;;-142.25;100.00;58004.16;5035545;28;20072;-68
2023/01/17 07:36:32;;;;;;;22.77;15.67;;;;;;;-142.25;100.00;58004.16;5038195;28;20039;-68
2023/01/17 07:38:57;;;;;;;27.00;17.53;;;;;;;-142.25;100.00;58004.16;5027954;28;20486;-68
2023/01/17 07:41:23;;;;;;;25.87;14.93;;;;;;;-142.25;100.00;58004.16;5041321;28;20124;-70
2023/01/17 07:43:49;;;;;;;26.37;15.03;;;;;;;-142.25;100.00;58004.16;5039516;28;20045;-70
2023/01/17 07:46:15;;;;;;;22.50;13.80;;;;;;;-142.25;100.00;58004.16;5042059;28;20040;-69
2023/01/17 07:48:43;;;;;;;25.17;14.17;;;;;;;-142.25;100.00;58004.16;5040022;28;20059;-69
2023/01/17 07:51:09;;;;;;;25.33;15.07;;;;;;;-142.25;100.00;58004.16;5038517;28;20045;-69
2023/01/17 07:53:35;;;;;;;49.13;28.00;;;;;;;-142.25;100.00;58004.16;5040432;28;20565;-69
2023/01/17 07:56:03;;;;;;;32.43;19.10;;;;;;;-142.25;100.00;58004.16;5040263;28;20043;-69
2023/01/17 07:58:29;;;;;;;33.93;19.13;;;;;;;-142.25;100.00;58004.16;5038795;28;20044;-69
2023/01/17 08:01:09;;;;;;;29.63;16.40;;;;;;;-142.25;100.00;58004.16;5039094;28;20420;-69
2023/01/17 08:03:38;;;;;;;43.27;21.77;;;;;;;-142.25;100.00;58004.16;5037666;28;20120;-69
2023/01/17 08:06:06;;;;;;;36.73;20.03;;;;;;;-142.25;100.00;58004.16;5035590;28;20041;-69
2023/01/17 08:08:32;;;;;;;40.53;21.17;;;;;;;-142.25;100.00;58004.16;5037209;28;20522;-68
2023/01/17 08:10:57;;;;;;;32.70;20.27;;;;;;;-142.25;100.00;58004.16;5041118;28;20049;-70
2023/01/17 08:13:23;;;;;;;39.23;21.87;;;;;;;-142.25;100.00;58004.16;5038993;28;20041;-68
2023/01/17 08:15:49;;;;;;;35.17;20.83;;;;;;;-142.25;100.00;58004.16;5035125;28;20082;-68
2023/01/17 08:18:16;;;;;;;35.07;19.77;;;;;;;-142.25;100.00;58004.16;5037889;28;20064;-68
2023/01/17 08:20:43;;;;;;;37.37;20.43;;;;;;;-142.25;100.00;58004.16;5035829;28;20550;-68
2023/01/17 08:23:09;;;;;;;34.40;20.57;;;;;;;-142.25;100.00;58004.16;5036762;28;20379;-69
2023/01/17 08:25:35;;;;;;;36.93;22.07;;;;;;;-142.25;100.00;58004.16;5041328;28;20036;-69
2023/01/17 08:28:01;;;;;;;29.27;19.33;;;;;;;-142.25;100.00;58004.16;5042999;28;20405;-68
2023/01/17 08:30:27;;;;;;;30.60;17.13;;;;;;;-142.25;100.00;58004.16;5041019;28;20067;-68
2023/01/17 08:32:53;;;;;;;30.97;17.43;;;;;;;-142.25;100.00;58004.16;5041035;28;20041;-68
2023/01/17 08:35:20;;;;;;;30.33;17.10;;;;;;;-142.25;100.00;58004.16;5022109;28;20638;-69
2023/01/17 08:37:47;;;;;;;27.30;16.97;;;;;;;-142.25;100.00;58004.16;5042069;28;20036;-69
2023/01/17 08:40:15;;;;;;;31.70;18.20;;;;;;;-142.25;100.00;58004.16;5043344;28;20049;-69
2023/01/17 08:42:42;;;;;;;34.17;17.40;;;;;;;-142.25;100.00;58004.16;5043209;28;20045;-70
2023/01/17 08:45:09;;;;;;;33.37;17.70;;;;;;;-142.25;100.00;58004.16;5030639;28;20029;-69
2023/01/17 08:47:35;;;;;;;26.77;16.73;;;;;;;-142.25;100.00;58004.16;5039659;28;20096;-69
2023/01/17 08:50:05;;;;;;;28.73;16.63;;;;;;;-142.25;100.00;58004.16;5041648;28;20037;-69
2023/01/17 08:52:32;;;;;;;28.67;16.30;;;;;;;-142.25;100.00;58004.16;5017697;28;20037;-69
2023/01/17 08:54:58;;;;;;;28.17;15.50;;;;;;;-142.25;100.00;58004.16;5028151;28;20360;-69
2023/01/17 08:57:23;;;;;;;24.80;16.40;;;;;;;-142.25;100.00;58004.16;5042657;28;20045;-69
2023/01/17 08:59:49;;;;;;;28.17;15.73;;;;;;;-142.25;100.00;58004.16;5045198;28;20452;-70
2023/01/17 09:02:17;;;;;;;29.00;16.77;;;;;;;-142.25;100.00;58004.16;5046126;28;20045;-70
2023/01/17 09:04:44;;;;;;;28.60;15.27;;;;;;;-142.25;100.00;58004.16;5041948;28;20114;-69
2023/01/17 09:07:09;;;;;;;25.20;15.20;;;;;;;-142.25;100.00;58004.16;5043581;28;20099;-69
2023/01/17 09:09:35;;;;;;;30.17;15.53;;;;;;;-142.25;100.00;58004.16;5044815;28;20048;-70
2023/01/17 09:12:00;;;;;;;23.33;13.77;;;;;;;-142.25;100.00;58004.16;5044236;28;20114;-69
2023/01/17 09:14:26;;;;;;;22.17;14.10;;;;;;;-142.25;100.00;58004.16;5027313;28;20056;-70
2023/01/17 09:16:51;;;;;;;27.30;13.70;;;;;;;-142.25;100.00;58004.16;5038618;28;20241;-68
2023/01/17 09:19:17;;;;;;;24.23;12.60;;;;;;;-142.25;100.00;58004.16;5042752;28;20063;-69
2023/01/17 09:21:43;;;;;;;20.33;12.57;;;;;;;-142.25;100.00;58004.16;5039473;28;20312;-70
2023/01/17 09:24:09;;;;;;;21.03;13.30;;;;;;;-142.25;100.00;58004.16;5037982;28;20123;-70
2023/01/17 09:26:34;;;;;;;17.37;11.90;;;;;;;-142.25;100.00;58004.16;5027180;28;20046;-69
2023/01/17 09:29:00;;;;;;;22.27;13.00;;;;;;;-142.25;100.00;58004.16;5044264;28;20051;-69
2023/01/17 09:31:26;;;;;;;20.00;12.63;;;;;;;-142.25;100.00;58004.16;5042653;28;20509;-68
2023/01/17 09:33:53;;;;;;;23.07;14.77;;;;;;;-142.25;100.00;58004.16;5038362;28;20045;-68
2023/01/17 09:36:20;;;;;;;29.30;15.27;;;;;;;-142.25;100.00;58004.16;5041234;28;20037;-69
2023/01/17 09:38:47;;;;;;;19.63;13.47;;;;;;;-142.25;100.00;58004.16;5043098;28;20200;-69
2023/01/17 09:41:20;;;;;;;25.93;16.83;;;;;;;-142.25;100.00;58004.16;5041857;28;20053;-69
2023/01/17 09:43:55;;;;;;;23.43;14.77;;;;;;;-142.25;100.00;58004.16;5039910;28;20470;-69
2023/01/17 09:46:27;;;;;;;23.52;13.68;;;;;;;-142.25;100.00;58004.16;5041716;28;20080;-69
2023/01/17 09:49:13;;;;;;;19.07;11.80;;;;;;;-142.25;100.00;58004.16;5045809;28;20115;-70
2023/01/17 09:51:40;;;;;;;14.82;9.25;;;;;;;-142.25;100.00;58004.16;5042248;28;20047;-69
2023/01/17 09:54:22;;;;;;;15.90;8.73;;;;;;;-142.25;100.00;58004.16;5028554;28;20064;-69
2023/01/17 09:57:01;;;;;;;12.50;8.37;;;;;;;-142.25;100.00;58004.16;5038947;28;20473;-69
2023/01/17 09:59:32;;;;;;;10.40;7.60;;;;;;;-142.25;100.00;58004.16;5039158;28;20040;-69
2023/01/17 10:02:19;;;;;;;17.50;7.33;;;;;;;-142.25;100.00;58004.16;5041176;28;20045;-69
2023/01/17 10:05:20;;;;;;;8.53;5.10;;;;;;;-142.25;100.00;58004.16;5038573;28;20041;-69
2023/01/17 10:08:13;;;;;;;7.80;4.90;;;;;;;-142.25;100.00;58004.16;4981528;28;20116;-69
2023/01/17 10:10:47;;;;;;;6.50;4.60;;;;;;;-142.25;100.00;58004.16;4984157;28;20054;-69
2023/01/17 10:14:01;;;;;;;6.00;4.43;;;;;;;-142.25;100.00;58004.16;4987177;28;20056;-69
2023/01/17 10:16:39;;;;;;;8.47;3.60;;;;;;;-142.25;100.00;58004.16;4983734;28;20633;-70
2023/01/17 10:19:17;;;;;;;4.40;3.43;;;;;;;-142.25;100.00;58004.16;4986994;28;20070;-70
2023/01/17 10:21:58;;;;;;;3.87;3.03;;;;;;;-142.25;100.00;58004.16;4986721;28;20078;-69
2023/01/17 10:25:17;;;;;;;3.33;2.70;;;;;;;-142.25;100.00;58004.16;4986191;28;20042;-69
2023/01/17 10:28:38;;;;;;;4.80;2.83;;;;;;;-142.25;100.00;58004.16;4947618;28;20063;-70
2023/01/17 10:31:17;;;;;;;5.50;2.73;;;;;;;-142.25;100.00;58004.16;4904046;29;20201;-70
2023/01/17 10:33:50;;;;;;;3.70;2.73;;;;;;;-142.25;100.00;58004.16;4909270;29;20087;-70
2023/01/17 10:36:19;;;;;;;3.57;2.83;;;;;;;-142.25;100.00;58004.16;4909304;29;20471;-70
2023/01/17 10:38:48;;;;;;;6.57;3.80;;;;;;;-142.25;100.00;58004.16;4909009;29;20060;-70
2023/01/17 10:41:23;;;;;;;5.07;3.03;;;;;;;-142.25;100.00;58004.16;4924656;28;20058;-67
2023/01/17 10:43:58;;;;;;;3.87;2.63;;;;;;;-142.25;100.00;58004.16;4967312;28;20521;-70
2023/01/17 10:46:35;;;;;;;2.90;1.85;;;;;;;-142.25;100.00;58004.16;4967236;28;20050;-68
2023/01/17 10:49:02;;;;;;;2.07;1.87;;;;;;;-142.25;100.00;58004.16;4964420;28;20140;-68
2023/01/17 10:52:09;;;;;;;2.33;2.13;;;;;;;-142.25;100.00;58004.16;4950644;28;20158;-68
2023/01/17 10:54:48;;;;;;;2.17;1.93;;;;;;;-142.25;100.00;58004.16;4913629;29;20772;-69
2023/01/17 10:57:19;;;;;;;2.07;1.87;;;;;;;-142.25;100.00;58004.16;4910891;29;20322;-68
2023/01/17 10:59:45;;;;;;;2.30;1.97;;;;;;;-142.25;100.00;58004.16;4911142;29;20048;-69
2023/01/17 11:02:28;;;;;;;2.33;1.97;;;;;;;-142.25;100.00;58004.16;4907373;29;20055;-68
2023/01/17 11:04:55;;;;;;;2.23;2.03;;;;;;;-142.25;100.00;58004.16;4940247;28;20465;-67
2023/01/17 11:07:25;;;;;;;2.30;2.10;;;;;;;-142.25;100.00;58004.16;4960257;28;20121;-70
2023/01/17 11:09:56;;;;;;;2.27;2.03;;;;;;;-142.25;100.00;58004.16;4961036;28;20070;-68
2023/01/17 11:12:36;;;;;;;2.33;2.13;;;;;;;-142.25;100.00;58004.16;4964844;28;20050;-67
2023/01/17 11:15:08;;;;;;;2.47;2.17;;;;;;;-142.25;100.00;58004.16;4960424;28;20043;-68
2023/01/17 11:17:36;;;;;;;2.70;2.13;;;;;;;-142.25;100.00;58004.16;4964274;28;20086;-69
2023/01/17 11:20:14;;;;;;;1.97;1.73;;;;;;;-142.25;100.00;58004.16;4959778;28;20059;-67
2023/01/17 11:23:01;;;;;;;1.43;1.33;;;;;;;-142.25;100.00;58004.16;4962163;28;20054;-69
2023/01/17 11:25:31;;;;;;;1.60;1.50;;;;;;;-142.25;100.00;58004.16;4966857;28;20053;-67
2023/01/17 11:28:06;;;;;;;2.47;2.20;;;;;;;-142.25;100.00;58004.16;4967227;28;20094;-68
2023/01/17 11:30:33;;;;;;;1.80;1.70;;;;;;;-142.25;100.00;58004.16;4967668;28;20140;-68
2023/01/17 11:33:03;;;;;;;2.50;2.30;;;;;;;-142.25;100.00;58004.16;5039296;28;20036;-66
2023/01/17 11:35:42;;;;;;;2.23;1.67;;;;;;;-142.25;100.00;58004.16;5037524;28;20090;-66
2023/01/17 11:38:20;;;;;;;2.43;1.93;;;;;;;-142.25;100.00;58004.16;5040144;28;20055;-70
2023/01/17 11:40:47;;;;;;;3.05;2.38;;;;;;;-142.25;100.00;58004.16;5038086;28;20045;-70
2023/01/17 11:43:24;;;;;;;2.70;1.83;;;;;;;-142.25;100.00;58004.16;5037559;28;20049;-69
2023/01/17 11:46:16;;;;;;;3.33;3.03;;;;;;;-142.25;100.00;58004.16;5036800;28;20087;-67
2023/01/17 11:49:06;;;;;;;4.27;2.73;;;;;;;-142.25;100.00;58004.16;5036376;28;20041;-69
2023/01/17 11:51:40;;;;;;;5.13;3.42;;;;;;;-142.25;100.00;58004.16;5042125;28;20057;-68
2023/01/17 11:54:23;;;;;;;5.50;3.85;;;;;;;-142.25;100.00;58004.16;5010702;28;20180;-68
2023/01/17 11:56:56;;;;;;;7.97;3.22;;;;;;;-142.25;100.00;58004.16;5040046;28;20033;-68
2023/01/17 11:59:33;;;;;;;5.17;3.33;;;;;;;-142.25;100.00;58004.16;5039403;28;20066;-70
2023/01/17 12:02:22;;;;;;;6.72;3.75;;;;;;;-142.25;100.00;58004.16;5031345;28;20067;-70
2023/01/17 12:05:07;;;;;;;4.57;2.97;;;;;;;-142.25;100.00;58004.16;5040259;28;20048;-70
2023/01/17 12:08:24;;;;;;;7.18;4.13;;;;;;;-142.25;100.00;58004.16;5035694;28;20052;-69
2023/01/17 12:11:15;;;;;;;3.53;3.00;;;;;;;-142.25;100.00;58004.16;4985268;28;20065;-68
2023/01/17 12:13:59;;;;;;;4.23;3.23;;;;;;;-142.25;100.00;58004.16;4913048;29;20158;-69
2023/01/17 12:17:03;;;;;;;4.65;2.85;;;;;;;-142.25;100.00;58004.16;4929318;29;20183;-68
2023/01/17 12:20:03;;;;;;;6.17;3.53;;;;;;;-142.25;100.00;58004.16;4929218;29;20118;-69
2023/01/17 12:22:52;;;;;;;5.77;3.57;;;;;;;-142.25;100.00;58004.16;4929433;29;20502;-69
2023/01/17 12:25:27;;;;;;;4.83;3.23;;;;;;;-142.25;100.00;58004.16;4930118;29;20055;-68
2023/01/17 12:28:30;;;;;;;6.30;2.97;;;;;;;-142.25;100.00;58004.16;4945262;28;20066;-68
2023/01/17 12:31:26;;;;;;;3.78;2.97;;;;;;;-142.25;100.00;58004.16;4929715;29;20063;-67
2023/01/17 12:34:09;;;;;;;5.88;3.30;;;;;;;-142.25;100.00;58004.16;4930368;29;20055;-66
2023/01/17 12:36:48;;;;;;;6.93;3.47;;;;;;;-142.25;100.00;58004.16;4929400;29;20069;-67